Terminal Aerodrome Forecast
Issued by NWS Green Bay, WI

Home | Current Version | Previous Version | Text Only | Print | Product List | Glossary On
Versions: 1 2 3 4 5 6 7 8 9 10 11 12 13 14 15 16 17 18 19 20 21 22 23 24 25 26 27 28 29 30 31 32 33 34 35 36 37 38 39 40 41 42 43 44 45 46 47 48
000
FTUS43 KGRB 110527
TAFGRB
TAF
KGRB 110527Z 1106/1206 VRB03KT P6SM OVC035
     FM111000 17003KT P6SM -SHSN OVC030
     FM111200 17004KT 3SM -SHSN OVC029
     FM111300 23005KT 1 1/2SM -SHSN OVC014
     FM111800 24005KT 3SM -FZDZSN OVC014
     FM120000 33008KT P6SM BKN028
     FM120200 33012G21KT P6SM SCT035=

USA.gov is the U.S. government's official web portal to all federal, state and local government web resources and services.